sensor_id;sensor_type;location;lat;lon;timestamp;P1;durP1;ratioP1;P2;durP2;ratioP2
8594;SDS011;4335;48.860;9.198;2023-07-31T00:00:19;3.13;;;2.37;;
8594;SDS011;4335;48.860;9.198;2023-07-31T00:02:49;5.40;;;2.33;;
8594;SDS011;4335;48.860;9.198;2023-07-31T00:05:18;2.83;;;1.87;;
8594;SDS011;4335;48.860;9.198;2023-07-31T00:07:56;3.53;;;1.70;;
8594;SDS011;4335;48.860;9.198;2023-07-31T00:10:32;4.97;;;1.97;;
8594;SDS011;4335;48.860;9.198;2023-07-31T00:12:59;3.20;;;1.83;;
8594;SDS011;4335;48.860;9.198;2023-07-31T00:15:28;3.67;;;1.80;;
8594;SDS011;4335;48.860;9.198;2023-07-31T00:17:56;2.27;;;1.90;;
8594;SDS011;4335;48.860;9.198;2023-07-31T00:20:23;4.07;;;1.77;;
8594;SDS011;4335;48.860;9.198;2023-07-31T00:22:56;4.90;;;1.83;;
8594;SDS011;4335;48.860;9.198;2023-07-31T00:25:22;2.87;;;2.00;;
8594;SDS011;4335;48.860;9.198;2023-07-31T00:27:54;3.40;;;1.67;;
8594;SDS011;4335;48.860;9.198;2023-07-31T00:30:21;7.00;;;2.80;;
8594;SDS011;4335;48.860;9.198;2023-07-31T00:32:48;2.67;;;1.73;;
8594;SDS011;4335;48.860;9.198;2023-07-31T00:35:15;3.77;;;1.70;;
8594;SDS011;4335;48.860;9.198;2023-07-31T00:37:51;2.20;;;1.83;;
8594;SDS011;4335;48.860;9.198;2023-07-31T00:40:20;2.80;;;1.70;;
8594;SDS011;4335;48.860;9.198;2023-07-31T00:42:47;2.67;;;1.60;;
8594;SDS011;4335;48.860;9.198;2023-07-31T00:45:14;2.70;;;2.30;;
8594;SDS011;4335;48.860;9.198;2023-07-31T00:47:51;4.67;;;2.13;;
8594;SDS011;4335;48.860;9.198;2023-07-31T00:50:19;3.70;;;2.27;;
8594;SDS011;4335;48.860;9.198;2023-07-31T00:52:54;3.13;;;1.90;;
8594;SDS011;4335;48.860;9.198;2023-07-31T00:55:42;3.87;;;2.23;;
8594;SDS011;4335;48.860;9.198;2023-07-31T00:58:09;3.00;;;1.93;;
8594;SDS011;4335;48.860;9.198;2023-07-31T01:00:36;2.93;;;2.10;;
8594;SDS011;4335;48.860;9.198;2023-07-31T01:03:05;2.97;;;1.83;;
8594;SDS011;4335;48.860;9.198;2023-07-31T01:05:36;4.23;;;2.07;;
8594;SDS011;4335;48.860;9.198;2023-07-31T01:08:11;3.87;;;2.00;;
8594;SDS011;4335;48.860;9.198;2023-07-31T01:11:00;2.90;;;1.70;;
8594;SDS011;4335;48.860;9.198;2023-07-31T01:13:40;3.57;;;1.70;;
8594;SDS011;4335;48.860;9.198;2023-07-31T01:16:08;5.80;;;1.90;;
8594;SDS011;4335;48.860;9.198;2023-07-31T01:18:34;2.90;;;1.80;;
8594;SDS011;4335;48.860;9.198;2023-07-31T01:21:03;2.20;;;2.00;;
8594;SDS011;4335;48.860;9.198;2023-07-31T01:23:52;5.07;;;1.97;;
8594;SDS011;4335;48.860;9.198;2023-07-31T01:26:49;4.73;;;2.00;;
8594;SDS011;4335;48.860;9.198;2023-07-31T01:29:23;2.53;;;1.63;;
8594;SDS011;4335;48.860;9.198;2023-07-31T01:31:55;3.10;;;1.77;;
8594;SDS011;4335;48.860;9.198;2023-07-31T01:34:27;2.43;;;1.80;;
8594;SDS011;4335;48.860;9.198;2023-07-31T01:36:58;2.57;;;1.60;;
8594;SDS011;4335;48.860;9.198;2023-07-31T01:39:27;2.87;;;1.80;;
8594;SDS011;4335;48.860;9.198;2023-07-31T01:41:55;2.83;;;2.00;;
8594;SDS011;4335;48.860;9.198;2023-07-31T01:44:21;2.80;;;1.77;;
8594;SDS011;4335;48.860;9.198;2023-07-31T01:46:57;2.60;;;1.83;;
8594;SDS011;4335;48.860;9.198;2023-07-31T01:49:25;3.10;;;1.83;;
8594;SDS011;4335;48.860;9.198;2023-07-31T01:51:55;5.23;;;1.90;;
8594;SDS011;4335;48.860;9.198;2023-07-31T01:54:22;4.53;;;1.83;;
8594;SDS011;4335;48.860;9.198;2023-07-31T01:56:52;3.03;;;1.60;;
8594;SDS011;4335;48.860;9.198;2023-07-31T01:59:19;3.67;;;1.70;;
8594;SDS011;4335;48.860;9.198;2023-07-31T02:01:46;2.97;;;1.70;;
8594;SDS011;4335;48.860;9.198;2023-07-31T02:04:14;4.27;;;1.80;;
8594;SDS011;4335;48.860;9.198;2023-07-31T02:06:41;2.27;;;1.63;;
8594;SDS011;4335;48.860;9.198;2023-07-31T02:09:09;3.77;;;1.80;;
8594;SDS011;4335;48.860;9.198;2023-07-31T02:11:35;3.57;;;1.50;;
8594;SDS011;4335;48.860;9.198;2023-07-31T02:14:02;2.67;;;1.80;;
8594;SDS011;4335;48.860;9.198;2023-07-31T02:16:31;4.97;;;2.00;;
8594;SDS011;4335;48.860;9.198;2023-07-31T02:18:58;3.37;;;2.00;;
8594;SDS011;4335;48.860;9.198;2023-07-31T02:21:27;4.37;;;1.70;;
8594;SDS011;4335;48.860;9.198;2023-07-31T02:23:57;2.43;;;1.77;;
8594;SDS011;4335;48.860;9.198;2023-07-31T02:26:29;3.10;;;1.70;;
8594;SDS011;4335;48.860;9.198;2023-07-31T02:29:08;6.60;;;2.27;;
8594;SDS011;4335;48.860;9.198;2023-07-31T02:31:37;3.10;;;2.17;;
8594;SDS011;4335;48.860;9.198;2023-07-31T02:34:03;4.73;;;1.80;;
8594;SDS011;4335;48.860;9.198;2023-07-31T02:36:33;3.53;;;1.80;;
8594;SDS011;4335;48.860;9.198;2023-07-31T02:39:03;3.63;;;1.87;;
8594;SDS011;4335;48.860;9.198;2023-07-31T02:41:29;3.67;;;2.07;;
8594;SDS011;4335;48.860;9.198;2023-07-31T02:43:56;3.20;;;1.87;;
8594;SDS011;4335;48.860;9.198;2023-07-31T02:46:32;4.53;;;2.13;;
8594;SDS011;4335;48.860;9.198;2023-07-31T02:48:59;2.43;;;2.23;;
8594;SDS011;4335;48.860;9.198;2023-07-31T02:51:26;3.87;;;2.10;;
8594;SDS011;4335;48.860;9.198;2023-07-31T02:53:53;2.87;;;1.87;;
8594;SDS011;4335;48.860;9.198;2023-07-31T02:56:19;3.97;;;1.90;;
8594;SDS011;4335;48.860;9.198;2023-07-31T02:58:46;2.50;;;2.30;;
8594;SDS011;4335;48.860;9.198;2023-07-31T03:01:18;3.23;;;2.10;;
8594;SDS011;4335;48.860;9.198;2023-07-31T03:03:48;3.10;;;1.83;;
8594;SDS011;4335;48.860;9.198;2023-07-31T03:06:16;4.83;;;2.33;;
8594;SDS011;4335;48.860;9.198;2023-07-31T03:08:45;2.10;;;1.80;;
8594;SDS011;4335;48.860;9.198;2023-07-31T03:11:12;4.30;;;2.13;;
8594;SDS011;4335;48.860;9.198;2023-07-31T03:13:45;3.47;;;2.00;;
8594;SDS011;4335;48.860;9.198;2023-07-31T03:16:21;5.40;;;1.93;;
8594;SDS011;4335;48.860;9.198;2023-07-31T03:18:48;3.60;;;2.40;;
8594;SDS011;4335;48.860;9.198;2023-07-31T03:21:21;2.07;;;1.80;;
8594;SDS011;4335;48.860;9.198;2023-07-31T03:23:49;3.60;;;1.37;;
8594;SDS011;4335;48.860;9.198;2023-07-31T03:26:21;2.97;;;1.90;;
8594;SDS011;4335;48.860;9.198;2023-07-31T03:28:51;4.70;;;1.70;;
8594;SDS011;4335;48.860;9.198;2023-07-31T03:31:17;4.80;;;2.20;;
8594;SDS011;4335;48.860;9.198;2023-07-31T03:33:47;2.20;;;1.90;;
8594;SDS011;4335;48.860;9.198;2023-07-31T03:36:19;3.20;;;1.80;;
8594;SDS011;4335;48.860;9.198;2023-07-31T03:38:51;7.00;;;2.43;;
8594;SDS011;4335;48.860;9.198;2023-07-31T03:41:20;3.33;;;1.70;;
8594;SDS011;4335;48.860;9.198;2023-07-31T03:43:55;3.20;;;1.90;;
8594;SDS011;4335;48.860;9.198;2023-07-31T03:46:22;1.70;;;1.60;;
8594;SDS011;4335;48.860;9.198;2023-07-31T03:48:49;3.10;;;2.00;;
8594;SDS011;4335;48.860;9.198;2023-07-31T03:51:16;2.67;;;1.90;;
8594;SDS011;4335;48.860;9.198;2023-07-31T03:53:46;3.20;;;1.77;;
8594;SDS011;4335;48.860;9.198;2023-07-31T03:56:13;3.63;;;1.90;;
8594;SDS011;4335;48.860;9.198;2023-07-31T03:58:40;3.43;;;2.30;;
8594;SDS011;4335;48.860;9.198;2023-07-31T04:01:09;2.20;;;2.00;;
8594;SDS011;4335;48.860;9.198;2023-07-31T04:03:39;3.27;;;1.87;;
8594;SDS011;4335;48.860;9.198;2023-07-31T04:06:06;3.60;;;1.73;;
8594;SDS011;4335;48.860;9.198;2023-07-31T04:08:33;4.07;;;2.00;;
8594;SDS011;4335;48.860;9.198;2023-07-31T04:11:00;2.33;;;1.60;;
8594;SDS011;4335;48.860;9.198;2023-07-31T04:13:27;3.70;;;2.00;;
8594;SDS011;4335;48.860;9.198;2023-07-31T04:15:55;4.83;;;2.23;;
8594;SDS011;4335;48.860;9.198;2023-07-31T04:18:24;2.70;;;1.70;;
8594;SDS011;4335;48.860;9.198;2023-07-31T04:21:00;3.27;;;2.23;;
8594;SDS011;4335;48.860;9.198;2023-07-31T04:23:33;4.20;;;2.10;;
8594;SDS011;4335;48.860;9.198;2023-07-31T04:26:03;4.50;;;2.07;;
8594;SDS011;4335;48.860;9.198;2023-07-31T04:28:30;3.77;;;1.97;;
8594;SDS011;4335;48.860;9.198;2023-07-31T04:30:57;4.17;;;2.10;;
8594;SDS011;4335;48.860;9.198;2023-07-31T04:33:24;3.37;;;2.00;;
8594;SDS011;4335;48.860;9.198;2023-07-31T04:35:58;3.03;;;1.93;;
8594;SDS011;4335;48.860;9.198;2023-07-31T04:38:28;3.00;;;2.00;;
8594;SDS011;4335;48.860;9.198;2023-07-31T04:40:56;2.40;;;1.97;;
8594;SDS011;4335;48.860;9.198;2023-07-31T04:43:26;3.40;;;1.73;;
8594;SDS011;4335;48.860;9.198;2023-07-31T04:45:59;2.47;;;1.90;;
8594;SDS011;4335;48.860;9.198;2023-07-31T04:48:35;3.50;;;1.67;;
8594;SDS011;4335;48.860;9.198;2023-07-31T04:51:04;4.23;;;2.27;;
8594;SDS011;4335;48.860;9.198;2023-07-31T04:53:31;3.13;;;2.20;;
8594;SDS011;4335;48.860;9.198;2023-07-31T04:56:06;3.60;;;1.97;;
8594;SDS011;4335;48.860;9.198;2023-07-31T04:58:33;3.40;;;1.83;;
8594;SDS011;4335;48.860;9.198;2023-07-31T05:01:00;3.43;;;2.30;;
8594;SDS011;4335;48.860;9.198;2023-07-31T05:03:35;3.70;;;2.10;;
8594;SDS011;4335;48.860;9.198;2023-07-31T05:06:02;2.43;;;1.70;;
8594;SDS011;4335;48.860;9.198;2023-07-31T05:08:32;3.60;;;1.63;;
8594;SDS011;4335;48.860;9.198;2023-07-31T05:11:02;7.20;;;2.40;;
8594;SDS011;4335;48.860;9.198;2023-07-31T05:13:28;3.60;;;2.00;;
8594;SDS011;4335;48.860;9.198;2023-07-31T05:15:56;3.63;;;1.90;;
8594;SDS011;4335;48.860;9.198;2023-07-31T05:18:22;4.80;;;2.00;;
8594;SDS011;4335;48.860;9.198;2023-07-31T05:20:52;3.37;;;1.70;;
8594;SDS011;4335;48.860;9.198;2023-07-31T05:23:19;2.13;;;1.90;;
8594;SDS011;4335;48.860;9.198;2023-07-31T05:25:48;4.13;;;2.17;;
8594;SDS011;4335;48.860;9.198;2023-07-31T05:28:15;3.20;;;1.90;;
8594;SDS011;4335;48.860;9.198;2023-07-31T05:30:47;3.23;;;2.03;;
8594;SDS011;4335;48.860;9.198;2023-07-31T05:33:15;2.87;;;2.20;;
8594;SDS011;4335;48.860;9.198;2023-07-31T05:35:41;5.13;;;2.40;;
8594;SDS011;4335;48.860;9.198;2023-07-31T05:38:10;2.93;;;1.90;;
8594;SDS011;4335;48.860;9.198;2023-07-31T05:40:37;4.47;;;2.00;;
8594;SDS011;4335;48.860;9.198;2023-07-31T05:43:04;3.20;;;1.90;;
8594;SDS011;4335;48.860;9.198;2023-07-31T05:45:39;6.87;;;2.23;;
8594;SDS011;4335;48.860;9.198;2023-07-31T05:48:05;5.57;;;2.57;;
8594;SDS011;4335;48.860;9.198;2023-07-31T05:50:33;3.97;;;2.23;;
8594;SDS011;4335;48.860;9.198;2023-07-31T05:53:00;3.57;;;2.10;;
8594;SDS011;4335;48.860;9.198;2023-07-31T05:55:29;3.93;;;2.47;;
8594;SDS011;4335;48.860;9.198;2023-07-31T05:57:56;7.53;;;2.60;;
8594;SDS011;4335;48.860;9.198;2023-07-31T06:00:26;6.00;;;3.80;;
8594;SDS011;4335;48.860;9.198;2023-07-31T06:02:53;9.27;;;2.77;;
8594;SDS011;4335;48.860;9.198;2023-07-31T06:05:22;5.83;;;3.50;;
8594;SDS011;4335;48.860;9.198;2023-07-31T06:07:49;5.00;;;3.30;;
8594;SDS011;4335;48.860;9.198;2023-07-31T06:10:16;3.27;;;2.57;;
8594;SDS011;4335;48.860;9.198;2023-07-31T06:12:44;4.37;;;2.80;;
8594;SDS011;4335;48.860;9.198;2023-07-31T06:15:10;5.30;;;3.40;;
8594;SDS011;4335;48.860;9.198;2023-07-31T06:17:37;5.57;;;3.47;;
8594;SDS011;4335;48.860;9.198;2023-07-31T06:20:07;4.47;;;3.40;;
8594;SDS011;4335;48.860;9.198;2023-07-31T06:22:37;5.07;;;3.07;;
8594;SDS011;4335;48.860;9.198;2023-07-31T06:25:07;4.33;;;2.73;;
8594;SDS011;4335;48.860;9.198;2023-07-31T06:27:34;4.50;;;3.07;;
8594;SDS011;4335;48.860;9.198;2023-07-31T06:30:01;5.03;;;2.67;;
8594;SDS011;4335;48.860;9.198;2023-07-31T06:32:28;4.77;;;2.80;;
8594;SDS011;4335;48.860;9.198;2023-07-31T06:34:56;4.30;;;2.30;;
8594;SDS011;4335;48.860;9.198;2023-07-31T06:37:22;3.53;;;2.23;;
8594;SDS011;4335;48.860;9.198;2023-07-31T06:39:49;4.07;;;2.30;;
8594;SDS011;4335;48.860;9.198;2023-07-31T06:42:20;4.07;;;2.50;;
8594;SDS011;4335;48.860;9.198;2023-07-31T06:44:47;3.80;;;2.37;;
8594;SDS011;4335;48.860;9.198;2023-07-31T06:47:14;4.77;;;2.80;;
8594;SDS011;4335;48.860;9.198;2023-07-31T06:49:47;3.83;;;2.33;;
8594;SDS011;4335;48.860;9.198;2023-07-31T06:52:14;3.37;;;2.53;;
8594;SDS011;4335;48.860;9.198;2023-07-31T06:54:41;3.67;;;2.50;;
8594;SDS011;4335;48.860;9.198;2023-07-31T06:57:07;3.35;;;2.40;;
8594;SDS011;4335;48.860;9.198;2023-07-31T06:59:35;3.28;;;1.95;;
8594;SDS011;4335;48.860;9.198;2023-07-31T07:02:01;5.00;;;2.42;;
8594;SDS011;4335;48.860;9.198;2023-07-31T07:04:31;4.53;;;2.53;;
8594;SDS011;4335;48.860;9.198;2023-07-31T07:06:58;3.10;;;2.28;;
8594;SDS011;4335;48.860;9.198;2023-07-31T07:09:33;2.63;;;2.33;;
8594;SDS011;4335;48.860;9.198;2023-07-31T07:12:05;5.13;;;2.95;;
8594;SDS011;4335;48.860;9.198;2023-07-31T07:14:33;3.22;;;2.58;;
8594;SDS011;4335;48.860;9.198;2023-07-31T07:17:00;3.85;;;3.03;;
8594;SDS011;4335;48.860;9.198;2023-07-31T07:19:30;8.25;;;2.50;;
8594;SDS011;4335;48.860;9.198;2023-07-31T07:22:00;5.70;;;3.00;;
8594;SDS011;4335;48.860;9.198;2023-07-31T07:24:27;2.65;;;2.20;;
8594;SDS011;4335;48.860;9.198;2023-07-31T07:26:59;3.78;;;2.17;;
8594;SDS011;4335;48.860;9.198;2023-07-31T07:29:26;4.60;;;2.40;;
8594;SDS011;4335;48.860;9.198;2023-07-31T07:32:08;5.10;;;2.78;;
8594;SDS011;4335;48.860;9.198;2023-07-31T07:34:35;6.13;;;3.15;;
8594;SDS011;4335;48.860;9.198;2023-07-31T07:37:07;4.43;;;2.78;;
8594;SDS011;4335;48.860;9.198;2023-07-31T07:39:34;3.50;;;2.80;;
8594;SDS011;4335;48.860;9.198;2023-07-31T07:42:04;5.00;;;2.43;;
8594;SDS011;4335;48.860;9.198;2023-07-31T07:44:31;5.32;;;3.30;;
8594;SDS011;4335;48.860;9.198;2023-07-31T07:47:00;3.35;;;2.72;;
8594;SDS011;4335;48.860;9.198;2023-07-31T07:49:30;5.78;;;3.60;;
8594;SDS011;4335;48.860;9.198;2023-07-31T07:51:57;8.45;;;5.15;;
8594;SDS011;4335;48.860;9.198;2023-07-31T07:54:30;4.28;;;3.45;;
8594;SDS011;4335;48.860;9.198;2023-07-31T07:56:57;4.35;;;3.25;;
8594;SDS011;4335;48.860;9.198;2023-07-31T07:59:23;3.55;;;2.40;;
8594;SDS011;4335;48.860;9.198;2023-07-31T08:01:50;4.18;;;2.72;;
8594;SDS011;4335;48.860;9.198;2023-07-31T08:04:35;3.95;;;2.60;;
8594;SDS011;4335;48.860;9.198;2023-07-31T08:07:02;2.90;;;2.60;;
8594;SDS011;4335;48.860;9.198;2023-07-31T08:09:32;4.35;;;2.67;;
8594;SDS011;4335;48.860;9.198;2023-07-31T08:12:08;4.18;;;2.50;;
8594;SDS011;4335;48.860;9.198;2023-07-31T08:14:34;3.70;;;2.70;;
8594;SDS011;4335;48.860;9.198;2023-07-31T08:17:07;4.15;;;2.65;;
8594;SDS011;4335;48.860;9.198;2023-07-31T08:19:35;3.60;;;2.70;;
8594;SDS011;4335;48.860;9.198;2023-07-31T08:22:02;2.80;;;2.00;;
8594;SDS011;4335;48.860;9.198;2023-07-31T08:24:31;3.08;;;2.47;;
8594;SDS011;4335;48.860;9.198;2023-07-31T08:27:08;4.13;;;2.10;;
8594;SDS011;4335;48.860;9.198;2023-07-31T08:29:35;3.83;;;2.78;;
8594;SDS011;4335;48.860;9.198;2023-07-31T08:32:05;2.78;;;2.10;;
8594;SDS011;4335;48.860;9.198;2023-07-31T08:34:36;3.58;;;2.67;;
8594;SDS011;4335;48.860;9.198;2023-07-31T08:37:05;3.00;;;2.35;;
8594;SDS011;4335;48.860;9.198;2023-07-31T08:39:32;3.17;;;2.70;;
8594;SDS011;4335;48.860;9.198;2023-07-31T08:41:58;5.00;;;3.58;;
8594;SDS011;4335;48.860;9.198;2023-07-31T08:44:26;2.80;;;2.10;;
8594;SDS011;4335;48.860;9.198;2023-07-31T08:46:53;6.05;;;3.55;;
8594;SDS011;4335;48.860;9.198;2023-07-31T08:49:20;4.28;;;2.38;;
8594;SDS011;4335;48.860;9.198;2023-07-31T08:51:54;2.53;;;2.30;;
8594;SDS011;4335;48.860;9.198;2023-07-31T08:54:23;4.53;;;2.83;;
8594;SDS011;4335;48.860;9.198;2023-07-31T08:56:49;5.32;;;2.40;;
8594;SDS011;4335;48.860;9.198;2023-07-31T08:59:17;4.30;;;2.67;;
8594;SDS011;4335;48.860;9.198;2023-07-31T09:01:49;3.40;;;2.28;;
8594;SDS011;4335;48.860;9.198;2023-07-31T09:04:24;5.82;;;2.95;;
8594;SDS011;4335;48.860;9.198;2023-07-31T09:06:57;5.88;;;2.70;;
8594;SDS011;4335;48.860;9.198;2023-07-31T09:09:28;5.00;;;2.58;;
8594;SDS011;4335;48.860;9.198;2023-07-31T09:11:55;3.50;;;2.40;;
8594;SDS011;4335;48.860;9.198;2023-07-31T09:14:23;4.55;;;2.70;;
8594;SDS011;4335;48.860;9.198;2023-07-31T09:16:54;4.95;;;2.13;;
8594;SDS011;4335;48.860;9.198;2023-07-31T09:19:27;4.07;;;2.60;;
8594;SDS011;4335;48.860;9.198;2023-07-31T09:21:56;3.88;;;2.63;;
8594;SDS011;4335;48.860;9.198;2023-07-31T09:24:27;4.47;;;2.50;;
8594;SDS011;4335;48.860;9.198;2023-07-31T09:26:58;4.45;;;2.80;;
8594;SDS011;4335;48.860;9.198;2023-07-31T09:29:28;3.80;;;2.60;;
8594;SDS011;4335;48.860;9.198;2023-07-31T09:31:55;4.00;;;2.78;;
8594;SDS011;4335;48.860;9.198;2023-07-31T09:34:28;5.50;;;3.50;;
8594;SDS011;4335;48.860;9.198;2023-07-31T09:37:13;5.78;;;3.88;;
8594;SDS011;4335;48.860;9.198;2023-07-31T09:39:48;5.80;;;4.07;;
8594;SDS011;4335;48.860;9.198;2023-07-31T09:42:26;5.65;;;3.40;;
8594;SDS011;4335;48.860;9.198;2023-07-31T09:45:01;4.07;;;3.08;;
8594;SDS011;4335;48.860;9.198;2023-07-31T09:47:36;5.40;;;3.00;;
8594;SDS011;4335;48.860;9.198;2023-07-31T09:50:13;4.53;;;2.45;;
8594;SDS011;4335;48.860;9.198;2023-07-31T09:52:41;5.70;;;3.10;;
8594;SDS011;4335;48.860;9.198;2023-07-31T09:55:14;6.95;;;3.40;;
8594;SDS011;4335;48.860;9.198;2023-07-31T09:57:44;5.75;;;3.05;;
8594;SDS011;4335;48.860;9.198;2023-07-31T10:00:18;4.18;;;2.95;;
8594;SDS011;4335;48.860;9.198;2023-07-31T10:02:51;4.97;;;2.63;;
8594;SDS011;4335;48.860;9.198;2023-07-31T10:05:19;4.10;;;2.67;;
8594;SDS011;4335;48.860;9.198;2023-07-31T10:07:49;3.17;;;2.22;;
8594;SDS011;4335;48.860;9.198;2023-07-31T10:10:19;5.70;;;3.17;;
8594;SDS011;4335;48.860;9.198;2023-07-31T10:12:47;3.08;;;2.58;;
8594;SDS011;4335;48.860;9.198;2023-07-31T10:15:14;3.22;;;2.30;;
8594;SDS011;4335;48.860;9.198;2023-07-31T10:17:48;4.05;;;2.65;;
8594;SDS011;4335;48.860;9.198;2023-07-31T10:20:25;4.20;;;2.85;;
8594;SDS011;4335;48.860;9.198;2023-07-31T10:22:54;5.20;;;2.50;;
8594;SDS011;4335;48.860;9.198;2023-07-31T10:25:28;4.72;;;2.65;;
8594;SDS011;4335;48.860;9.198;2023-07-31T10:27:59;6.35;;;2.50;;
8594;SDS011;4335;48.860;9.198;2023-07-31T10:30:27;4.07;;;2.95;;
8594;SDS011;4335;48.860;9.198;2023-07-31T10:32:58;3.63;;;2.35;;
8594;SDS011;4335;48.860;9.198;2023-07-31T10:35:32;3.17;;;2.35;;
8594;SDS011;4335;48.860;9.198;2023-07-31T10:38:09;3.33;;;2.58;;
8594;SDS011;4335;48.860;9.198;2023-07-31T10:40:37;3.53;;;2.70;;
8594;SDS011;4335;48.860;9.198;2023-07-31T10:43:04;4.25;;;2.90;;
8594;SDS011;4335;48.860;9.198;2023-07-31T10:45:34;3.33;;;3.03;;
8594;SDS011;4335;48.860;9.198;2023-07-31T10:48:03;4.13;;;3.00;;
8594;SDS011;4335;48.860;9.198;2023-07-31T10:50:31;4.80;;;2.63;;
8594;SDS011;4335;48.860;9.198;2023-07-31T10:53:22;4.57;;;2.30;;
8594;SDS011;4335;48.860;9.198;2023-07-31T10:55:51;3.08;;;2.22;;
8594;SDS011;4335;48.860;9.198;2023-07-31T10:58:26;3.72;;;2.70;;
8594;SDS011;4335;48.860;9.198;2023-07-31T11:00:55;3.80;;;2.88;;
8594;SDS011;4335;48.860;9.198;2023-07-31T11:03:24;4.05;;;2.78;;
8594;SDS011;4335;48.860;9.198;2023-07-31T11:05:59;5.13;;;2.80;;
8594;SDS011;4335;48.860;9.198;2023-07-31T11:08:29;5.60;;;3.35;;
8594;SDS011;4335;48.860;9.198;2023-07-31T11:11:05;4.30;;;2.78;;
8594;SDS011;4335;48.860;9.198;2023-07-31T11:13:33;3.60;;;2.45;;
8594;SDS011;4335;48.860;9.198;2023-07-31T11:16:07;4.22;;;2.80;;
8594;SDS011;4335;48.860;9.198;2023-07-31T11:18:34;5.68;;;3.25;;
8594;SDS011;4335;48.860;9.198;2023-07-31T11:21:04;6.03;;;4.40;;
8594;SDS011;4335;48.860;9.198;2023-07-31T11:23:37;4.30;;;3.05;;
8594;SDS011;4335;48.860;9.198;2023-07-31T11:26:06;5.90;;;2.80;;
8594;SDS011;4335;48.860;9.198;2023-07-31T11:28:33;4.15;;;3.25;;
8594;SDS011;4335;48.860;9.198;2023-07-31T11:31:01;4.43;;;3.13;;
8594;SDS011;4335;48.860;9.198;2023-07-31T11:33:28;4.47;;;3.53;;
8594;SDS011;4335;48.860;9.198;2023-07-31T11:35:55;3.88;;;2.85;;
8594;SDS011;4335;48.860;9.198;2023-07-31T11:38:29;4.28;;;2.45;;
8594;SDS011;4335;48.860;9.198;2023-07-31T11:40:58;6.05;;;3.40;;
8594;SDS011;4335;48.860;9.198;2023-07-31T11:43:31;7.00;;;3.47;;
8594;SDS011;4335;48.860;9.198;2023-07-31T11:46:02;5.70;;;3.72;;
8594;SDS011;4335;48.860;9.198;2023-07-31T11:48:29;4.10;;;2.95;;
8594;SDS011;4335;48.860;9.198;2023-07-31T11:50:59;4.28;;;2.92;;
8594;SDS011;4335;48.860;9.198;2023-07-31T11:53:27;3.25;;;2.88;;
8594;SDS011;4335;48.860;9.198;2023-07-31T11:56:01;4.00;;;2.70;;
8594;SDS011;4335;48.860;9.198;2023-07-31T11:58:29;6.70;;;3.33;;
8594;SDS011;4335;48.860;9.198;2023-07-31T12:00:57;3.47;;;2.85;;
8594;SDS011;4335;48.860;9.198;2023-07-31T12:03:25;5.75;;;2.83;;
8594;SDS011;4335;48.860;9.198;2023-07-31T12:05:55;4.10;;;2.95;;
8594;SDS011;4335;48.860;9.198;2023-07-31T12:08:22;4.97;;;3.33;;
8594;SDS011;4335;48.860;9.198;2023-07-31T12:10:50;4.93;;;3.30;;
8594;SDS011;4335;48.860;9.198;2023-07-31T12:13:20;5.47;;;3.30;;
8594;SDS011;4335;48.860;9.198;2023-07-31T12:15:54;6.43;;;2.83;;
8594;SDS011;4335;48.860;9.198;2023-07-31T12:18:23;7.50;;;3.80;;
8594;SDS011;4335;48.860;9.198;2023-07-31T12:20:59;3.25;;;2.63;;
8594;SDS011;4335;48.860;9.198;2023-07-31T12:23:26;3.67;;;2.60;;
8594;SDS011;4335;48.860;9.198;2023-07-31T12:25:59;4.10;;;2.72;;
8594;SDS011;4335;48.860;9.198;2023-07-31T12:28:32;3.73;;;2.60;;
8594;SDS011;4335;48.860;9.198;2023-07-31T12:31:08;6.13;;;2.63;;
8594;SDS011;4335;48.860;9.198;2023-07-31T12:33:36;5.63;;;2.80;;
8594;SDS011;4335;48.860;9.198;2023-07-31T12:36:07;4.85;;;3.00;;
8594;SDS011;4335;48.860;9.198;2023-07-31T12:38:35;4.50;;;2.72;;
8594;SDS011;4335;48.860;9.198;2023-07-31T12:41:02;5.38;;;2.85;;
8594;SDS011;4335;48.860;9.198;2023-07-31T12:43:29;5.47;;;3.17;;
8594;SDS011;4335;48.860;9.198;2023-07-31T12:45:59;4.60;;;3.38;;
8594;SDS011;4335;48.860;9.198;2023-07-31T12:48:28;4.68;;;2.92;;
8594;SDS011;4335;48.860;9.198;2023-07-31T12:50:55;5.13;;;3.08;;
8594;SDS011;4335;48.860;9.198;2023-07-31T12:53:22;5.68;;;2.92;;
8594;SDS011;4335;48.860;9.198;2023-07-31T12:55:49;4.13;;;2.72;;
8594;SDS011;4335;48.860;9.198;2023-07-31T12:58:15;6.00;;;3.00;;
8594;SDS011;4335;48.860;9.198;2023-07-31T13:00:48;3.15;;;2.60;;
8594;SDS011;4335;48.860;9.198;2023-07-31T13:03:15;5.65;;;2.80;;
8594;SDS011;4335;48.860;9.198;2023-07-31T13:05:47;3.20;;;2.72;;
8594;SDS011;4335;48.860;9.198;2023-07-31T13:08:17;2.97;;;2.63;;
8594;SDS011;4335;48.860;9.198;2023-07-31T13:10:43;3.23;;;2.70;;
8594;SDS011;4335;48.860;9.198;2023-07-31T13:13:10;5.00;;;3.20;;
8594;SDS011;4335;48.860;9.198;2023-07-31T13:15:37;3.23;;;2.70;;
8594;SDS011;4335;48.860;9.198;2023-07-31T13:18:04;4.00;;;2.40;;
8594;SDS011;4335;48.860;9.198;2023-07-31T13:20:37;4.37;;;2.83;;
8594;SDS011;4335;48.860;9.198;2023-07-31T13:23:03;5.00;;;2.57;;
8594;SDS011;4335;48.860;9.198;2023-07-31T13:25:33;5.13;;;2.70;;
8594;SDS011;4335;48.860;9.198;2023-07-31T13:28:05;3.70;;;2.90;;
8594;SDS011;4335;48.860;9.198;2023-07-31T13:30:34;4.37;;;2.60;;
8594;SDS011;4335;48.860;9.198;2023-07-31T13:33:01;3.53;;;2.60;;
8594;SDS011;4335;48.860;9.198;2023-07-31T13:35:36;4.03;;;2.50;;
8594;SDS011;4335;48.860;9.198;2023-07-31T13:38:05;3.27;;;2.50;;
8594;SDS011;4335;48.860;9.198;2023-07-31T13:40:35;3.70;;;3.07;;
8594;SDS011;4335;48.860;9.198;2023-07-31T13:43:07;4.00;;;2.57;;
8594;SDS011;4335;48.860;9.198;2023-07-31T13:45:34;4.33;;;2.87;;
8594;SDS011;4335;48.860;9.198;2023-07-31T13:48:01;3.93;;;2.40;;
8594;SDS011;4335;48.860;9.198;2023-07-31T13:50:34;5.10;;;3.10;;
8594;SDS011;4335;48.860;9.198;2023-07-31T13:53:00;6.97;;;3.03;;
8594;SDS011;4335;48.860;9.198;2023-07-31T13:55:32;4.43;;;2.80;;
8594;SDS011;4335;48.860;9.198;2023-07-31T13:58:02;5.50;;;2.93;;
8594;SDS011;4335;48.860;9.198;2023-07-31T14:00:31;3.93;;;2.80;;
8594;SDS011;4335;48.860;9.198;2023-07-31T14:03:12;3.80;;;3.00;;
8594;SDS011;4335;48.860;9.198;2023-07-31T14:05:45;3.70;;;2.67;;
8594;SDS011;4335;48.860;9.198;2023-07-31T14:08:17;4.27;;;3.10;;
8594;SDS011;4335;48.860;9.198;2023-07-31T14:10:47;4.50;;;2.63;;
8594;SDS011;4335;48.860;9.198;2023-07-31T14:13:14;4.33;;;3.00;;
8594;SDS011;4335;48.860;9.198;2023-07-31T14:15:41;3.47;;;2.90;;
8594;SDS011;4335;48.860;9.198;2023-07-31T14:18:09;4.60;;;2.93;;
8594;SDS011;4335;48.860;9.198;2023-07-31T14:20:35;4.53;;;2.90;;
8594;SDS011;4335;48.860;9.198;2023-07-31T14:23:08;5.53;;;2.90;;
8594;SDS011;4335;48.860;9.198;2023-07-31T14:28:19;4.50;;;3.03;;
8594;SDS011;4335;48.860;9.198;2023-07-31T14:30:46;3.67;;;2.72;;
8594;SDS011;4335;48.860;9.198;2023-07-31T14:33:13;4.40;;;2.83;;
8594;SDS011;4335;48.860;9.198;2023-07-31T14:35:42;3.15;;;2.78;;
8594;SDS011;4335;48.860;9.198;2023-07-31T14:38:09;4.03;;;2.70;;
8594;SDS011;4335;48.860;9.198;2023-07-31T14:40:35;3.70;;;2.80;;
8594;SDS011;4335;48.860;9.198;2023-07-31T14:43:04;4.88;;;2.42;;
8594;SDS011;4335;48.860;9.198;2023-07-31T14:45:31;4.18;;;2.80;;
8594;SDS011;4335;48.860;9.198;2023-07-31T14:48:00;4.43;;;2.63;;
8594;SDS011;4335;48.860;9.198;2023-07-31T14:50:27;5.20;;;2.97;;
8594;SDS011;4335;48.860;9.198;2023-07-31T14:52:54;4.32;;;2.65;;
8594;SDS011;4335;48.860;9.198;2023-07-31T14:55:21;4.20;;;2.70;;
8594;SDS011;4335;48.860;9.198;2023-07-31T14:57:53;4.47;;;2.73;;
8594;SDS011;4335;48.860;9.198;2023-07-31T15:00:23;4.80;;;2.63;;
8594;SDS011;4335;48.860;9.198;2023-07-31T15:02:49;3.25;;;2.72;;
8594;SDS011;4335;48.860;9.198;2023-07-31T15:05:19;7.70;;;3.70;;
8594;SDS011;4335;48.860;9.198;2023-07-31T15:07:50;4.37;;;2.80;;
8594;SDS011;4335;48.860;9.198;2023-07-31T15:10:17;5.25;;;3.22;;
8594;SDS011;4335;48.860;9.198;2023-07-31T15:12:44;2.88;;;2.45;;
8594;SDS011;4335;48.860;9.198;2023-07-31T15:15:10;4.22;;;2.90;;
8594;SDS011;4335;48.860;9.198;2023-07-31T15:17:41;5.65;;;2.88;;
8594;SDS011;4335;48.860;9.198;2023-07-31T15:20:11;3.97;;;2.42;;
8594;SDS011;4335;48.860;9.198;2023-07-31T15:22:37;3.67;;;2.72;;
8594;SDS011;4335;48.860;9.198;2023-07-31T15:25:06;4.57;;;2.72;;
8594;SDS011;4335;48.860;9.198;2023-07-31T15:27:33;4.28;;;2.67;;
8594;SDS011;4335;48.860;9.198;2023-07-31T15:30:00;3.15;;;2.70;;
8594;SDS011;4335;48.860;9.198;2023-07-31T15:32:27;4.47;;;2.90;;